Rechercher aéroport 
image banner adimage banner adimage banner ad
image banner ad

CL84 - Ahlem Farms

Situé à Hilmar, United States

ICAO - CL84, IATA -

Données fournies par Airmate  

Information générale

Coordonnées: N37°23'18" W120°55'39"
Élévation : 73 feet MSL.
Variation magnétique : 16° East
Voir autres Aéroports à California

Données opérationnelles

Special qualification required
Heure actuelle UTC:
Heure actuelle locale:
METAR: KMOD 251553Z 34005KT 10SM CLR 23/08 A2989 RMK AO2 SLP120 T02330083
TAF: KMOD 251120Z 2512/2612 33008KT P6SM SCT250
Voir NOTAMs / SUP AIP / TFR affectant cet aéroport [VIEW]
Fréquences de communication: [VIEW]

Pistes:

Identifiant RWYQFULongueur (ft)Largeur (ft)SurfaceLDA (ft)
08261740ASPH
26261740ASPH

Coordonnées de l'aéroport

Adresse: Hilmar United States

Vue satellite de CL84